AirNav   Air Wisconsin pilot careers
 
 973 users online  

71CL Gunnersfield Ranch Airport
Delevan, California, USA

GOING TO DELEVAN?


FAA INFORMATION EFFECTIVE 03 JANUARY 2019

Location

FAA Identifier: 71CL
Lat/Long: 39-21-09.5910N / 122-05-37.9160W
39-21.159850N / 122-05.631933W
39.3526642 / -122.0938656
(estimated)
Elevation: 62 ft. / 19 m (estimated)
Variation: 17E (1985)
From city: 4 miles E of DELEVAN, CA
Time zone: UTC -8 (UTC -7 during Daylight Saving Time)
Zip code: 95932

Airport Operations

Airport use: Private use. Permission required prior to landing
Activation date: 05/1965
Control tower: no
ARTCC: OAKLAND CENTER
FSS: RANCHO MURIETA FLIGHT SERVICE STATION
Attendance: UNATNDD
Wind indicator: yes
Segmented circle: no
Lights: FOR RWY LGTS PHONE 916-438-2316.
Beacon: white-green (lighted land airport)
FOR RTG BCN PHONE 916-438-2316.

Airport Communications

UNICOM: 122.8
  • UNICOM OPERATED AS REQUIRED.

Nearby radio navigation aids

VOR radial/distance  VOR name  Freq  Var
ILAr332/17.2WILLIAMS VORTAC114.4018E
CICr188/28.6CHICO VOR/DME109.8016E
MYVr286/28.6MARYSVILLE VOR/DME110.8016E

Airport Services

Airframe service: NONE
Powerplant service: NONE

Runway Information

Runway 16/34

Dimensions: 2570 x 40 ft. / 783 x 12 m
Surface: asphalt
Runway edge lights: low intensity
RUNWAY 16  RUNWAY 34
Traffic pattern: leftleft
Obstructions: none4 ft. levee, 20 ft. from runway

Airport Ownership and Management from official FAA records

Ownership: Privately-owned
Owner: JON B. CHANEY
PO BOX 626
MAXWELL, CA 95955
Phone 916-438-2504
Manager: DOUGLAS MC GEOGHEGAN
PO BOX 626
MAXWELL, CA 95955
Phone 916-438-2504

Airport Operational Statistics

Aircraft based on the field: 1
Single engine airplanes: 1
    

Additional Remarks

LGTD/MKD HANGER NEAR RWY.

Instrument Procedures

There are no published instrument procedures at 71CL.

Some nearby airports with instrument procedures:

KWLW - Willows-Glenn County Airport (11 nm NW)
O08 - Colusa County Airport (11 nm SE)
O37 - Haigh Field Airport (22 nm N)
KOVE - Oroville Municipal Airport (23 nm E)
KCIC - Chico Municipal Airport (29 nm N)
 
Loc | Ops | Rwys | IFR | FBO | Links
Com | Nav | Svcs | Stats | Notes

Sonoma Jet Center
 
Area around 71CL (Gunnersfield Ranch Airport)
 
Road maps at: MapQuest Bing Google
 
Aerial photo
No photo
 
Sectional chart

 
Airport distance calculator
Flying to Gunnersfield Ranch Airport? Find the distance to fly.

From to 71CL

Sunrise and sunset
Times for 19-Jan-2019
 Local
(UTC-8)
 Zulu
(UTC)
Morning civil twilight06:5714:57
Sunrise07:2615:26
Sunset17:1301:13
Evening civil twilight17:4201:42

Current date and time
Zulu (UTC)  19-Jan-2019 17:44:48
Local (UTC-8)  19-Jan-2019 09:44:48
 
METAR
KOVE 
24nm E 
191718Z AUTO 00000KT 10SM OVC030 13/11 A3040 RMK AO2 T01330106 $
KCIC 
29nm NE 
191415Z AUTO 13007KT 10SM SCT008 BKN013 OVC020 11/11 A3038 RMK AO1
KMYV 
29nm SE 
191653Z AUTO 11003KT 10SM OVC032 12/11 A3038 RMK AO2 SLP292 T01220106
KBAB 
33nm SE 
191658Z AUTO 12003KT 10SM OVC032 13/11 A3037 RMK AO2 VIS 2 1/2 RWY33 SLP287 T01280105 $
KLHM 
44nm SE 
191735Z AUTO 00000KT 10SM OVC070 12/10 A3038 RMK AO1
KO54 
45nm N 
191735Z AUTO 00000KT 2SM BKN003 OVC024 04/04 A3034 RMK AO1 P0001
KSMF 
45nm SE 
191653Z 00000KT 10SM BKN070 BKN250 12/11 A3037 RMK AO2 SLP285 T01220111
TAF
KBAB 
33nm SE 
191104Z 1911/2017 VRB06KT 8000 BR SCT015 OVC030 QNH3037INS BECMG 1917/1918 16009KT 9999 NSW BKN040 QNH3029INS BECMG 2000/2001 VRB06KT 9999 SCT040 QNH3022INS BECMG 2006/2007 VRB06KT 9999 BKN030 QNH3016INS BECMG 2011/2012 14009KT 9999 BKN015 QNH3011INS BECMG 2014/2015 18012G25KT 9999 BKN015 QNH3011INS TX16/1923Z TN10/1914Z
NOTAMs
Click for the latest NOTAMs
NOTAMs are issued by the DoD/FAA and will open in a separate window not controlled by AirNav.

 

 
 

Would you like to see your business listed on this page?

 If your business provides an interesting product or service to pilots, flight crews, aircraft, or users of the Gunnersfield Ranch Airport, you should consider listing it here.  To start the listing process, click on the button below
 
Add a business
 

Other Pages about Gunnersfield Ranch Airport

Update a link
 
Copyright © AirNav, LLC. All rights reserved. Privacy Policy  Contact